ADDS METAR Data INFO
IDs: Format: Raw Decoded Include TAF

Data at: 0313 UTC 22 Apr 2018

KRFI 220255Z AUTO 12006KT 10SM SCT016 BKN026 OVC100 17/16 A2994 RMK AO2 LTG DSNT NE AND E T01650162
KRFI 220235Z AUTO 00000KT 7SM /VCTSRA SCT005 SCT010 OVC014 16/16 A2995 RMK AO2 LTG DSNT N NE AND SW T01620160
KRFI 220155Z AUTO 06003KT 7SM RA BKN005 OVC012 17/16 A2994 RMK AO2 LTG DSNT ALQS T01680163
KRFI 220135Z AUTO 30005KT 4SM RA BKN003 BKN012 OVC018 18/17 A2994 RMK AO2 LTG DSNT NE AND E T01750171
KRFI 220115Z AUTO 30011G16KT 2 1/2SM /VCTSRA BKN003 OVC012 18/18 A2992 RMK AO2 LTG DSNT N SE AND W T01780175
KRFI 220055Z AUTO 22003KT 5SM -VCTSRA BKN005 BKN010 OVC014 18/18 A2991 RMK AO2 LTG DSNT ALQS T01800176
KRFI 220035Z AUTO 13008KT 7SM -RA BKN007 BKN012 OVC018 18/18 A2990 RMK AO2 LTG DSNT N AND SE T01780175
KRFI 220015Z AUTO 15008KT 7SM -RA SCT007 OVC019 18/17 A2991 RMK AO2 LTG DSNT S T01800173
KRFI 212355Z AUTO 13004KT 5SM BR BKN005 OVC019 18/17 A2991 RMK AO2 LTG DSNT S T01750172 10209 20165
KRFI 212335Z AUTO 12003KT 4SM RA OVC005 17/17 A2992 RMK AO2 LTG DSNT S T01730170
KRFI 212315Z AUTO 00000KT 5SM RA BKN005 OVC020 17/17 A2992 RMK AO2 LTG DSNT SW T01720170
KRFI 212255Z AUTO 12003KT 4SM RA BKN005 BKN018 OVC024 17/17 A2992 RMK AO2 T01700167
KRFI 212235Z AUTO 13005KT 3SM RA BKN005 BKN018 OVC041 17/17 A2993 RMK AO2 LTG DSNT SW T01700165
KRFI 212215Z AUTO 12006KT 5SM -RA SCT022 BKN041 OVC048 17/16 A2993 RMK AO2 LTG DSNT S T01700163
KRFI 212155Z AUTO 13006KT 5SM -RA SCT025 BKN030 OVC050 17/16 A2994 RMK AO2 T01680160
KRFI 212135Z AUTO 13004KT 4SM -RA BKN027 BKN040 OVC046 17/16 A2995 RMK AO2 T01660158
KRFI 212115Z AUTO 13004KT 7SM RA SCT029 OVC046 17/16 A2995 RMK AO2 LTG DSNT NE T01670158
KRFI 212055Z AUTO 00000KT 5SM -RA SCT037 BKN050 OVC070 17/15 A2996 RMK AO2 T01670154
KRFI 212035Z AUTO 11004KT 3SM +RA SCT048 BKN060 OVC075 17/15 A2996 RMK AO2 T01690152
KRFI 212015Z AUTO 11006KT 7SM RA SCT050 BKN065 OVC090 18/15 A2997 RMK AO2 T01750151
KRFI 211955Z AUTO 12006KT 10SM -VCTSRA SCT042 BKN065 OVC090 19/15 A2998 RMK AO2 T01860149
KRFI 211935Z AUTO 12004KT 10SM SCT043 SCT050 BKN065 20/14 A2999 RMK AO2 T01950138
KRFI 211915Z AUTO 15007KT 10SM VCTS CLR 20/14 A2998 RMK AO2 LTG DSNT SW AND NW T01980135
KRFI 211855Z AUTO 15012G19KT 10SM VCTS CLR 20/14 A2997 RMK AO2 LTG DSNT N AND NW T02010135
KRFI 211835Z AUTO 15010G16KT 10SM SCT027 21/13 A2997 RMK AO2 LTG DSNT N AND NW T02050134
KRFI 211815Z AUTO 14010G16KT 10SM BKN027 21/13 A2999 RMK AO2 LTG DSNT W T02080131
KRFI 211755Z AUTO 14012G18KT 10SM BKN027 BKN060 21/12 A3001 RMK AO2 LTG DSNT N AND NW T02070121 10212 20109
KRFI 211735Z AUTO 14011G17KT 10SM SCT027 BKN032 BKN070 21/12 A3002 RMK AO2 LTG DSNT NW T02100116
KRFI 211715Z AUTO 14012G17KT 10SM BKN027 BKN034 BKN070 21/11 A3003 RMK AO2 LTG DSNT NW T02080112
KRFI 211655Z AUTO 14011G16KT 10SM SCT029 OVC070 20/11 A3005 RMK AO2 T02010106
KRFI 211635Z AUTO 13010KT 10SM BKN070 19/10 A3006 RMK AO2 LTG DSNT NW T01890097
KRFI 211615Z AUTO 13010KT 10SM CLR 18/10 A3007 RMK AO2 LTG DSNT NW T01820097
KRFI 211555Z AUTO 12009G14KT 10SM SCT070 18/10 A3007 RMK AO2 T01760095
KRFI 211535Z AUTO 13007KT 10SM SCT043 SCT050 OVC070 17/10 A3009 RMK AO2 T01650095
KRFI 211515Z AUTO 13005KT 10SM SCT049 OVC060 16/10 A3010 RMK AO2 T01570095
KRFI 211455Z AUTO 12006KT 10SM OVC070 15/09 A3010 RMK AO2 T01520091
KRFI 211435Z AUTO 11005KT 10SM OVC060 15/09 A3010 RMK AO2 LTG DSNT NW T01460092
KRFI 211415Z AUTO 12003KT 10SM SCT050 OVC060 14/09 A3010 RMK AO2 T01400090
KRFI 211355Z AUTO 08003KT 10SM BKN050 OVC065 13/09 A3010 RMK AO2 LTG DSNT NW T01300086
KRFI 211335Z AUTO 07004KT 10SM BKN050 OVC060 13/09 A3010 RMK AO2 T01270085
KRFI 211315Z AUTO 08005KT 10SM OVC050 13/08 A3011 RMK AO2 T01250084
KRFI 211255Z AUTO 00000KT 10SM OVC050 12/08 A3011 RMK AO2 T01220083
KRFI 211235Z AUTO 05003KT 10SM BKN055 12/08 A3011 RMK AO2 T01160080
KRFI 211215Z AUTO 00000KT 10SM SCT055 11/08 A3011 RMK AO2 LTG DSNT NW T01100076
KRFI 211155Z AUTO 07003KT 10SM BKN055 11/08 A3010 RMK AO2 T01080076 10125 20099
KRFI 211135Z AUTO 00000KT 10SM SCT049 OVC055 11/08 A3010 RMK AO2 T01090076
KRFI 211115Z AUTO 07003KT 10SM OVC049 11/08 A3010 RMK AO2 T01110078
KRFI 211055Z AUTO 00000KT 10SM BKN049 11/08 A3011 RMK AO2 T01070081
KRFI 211035Z AUTO 00000KT 10SM SCT047 11/08 A3009 RMK AO2 T01070080
KRFI 211015Z AUTO 00000KT 10SM CLR 10/08 A3009 RMK AO2 T00990082
KRFI 210955Z AUTO 00000KT 10SM CLR 11/08 A3008 RMK AO2 T01110080
KRFI 210935Z AUTO 00000KT 10SM CLR 11/08 A3009 RMK AO2 T01110080
KRFI 210915Z AUTO 08004KT 10SM CLR 11/08 A3009 RMK AO2 T01110078
KRFI 210855Z AUTO 09004KT 10SM CLR 11/08 A3010 RMK AO2 T01130078
KRFI 210835Z AUTO 08003KT 10SM CLR 11/08 A3010 RMK AO2 T01140079
KRFI 210815Z AUTO 08003KT 10SM CLR 11/08 A3011 RMK AO2 T01130079
KRFI 210755Z AUTO 00000KT 10SM CLR 12/08 A3011 RMK AO2 T01150077
KRFI 210735Z AUTO 00000KT 10SM CLR 12/08 A3012 RMK AO2 T01170077
KRFI 210715Z AUTO 00000KT 10SM CLR 12/08 A3012 RMK AO2 T01180077
KRFI 210655Z AUTO 00000KT 10SM CLR 12/08 A3013 RMK AO2 T01190077
KRFI 210635Z AUTO 00000KT 10SM CLR 12/08 A3014 RMK AO2 T01200075
KRFI 210615Z AUTO 10004KT 10SM CLR 12/08 A3014 RMK AO2 T01220075
KRFI 210555Z AUTO 11004KT 10SM CLR 12/08 A3014 RMK AO2 LTG DSNT N T01220075 10181 20104 401970066
KRFI 210535Z AUTO 10003KT 10SM CLR 12/07 A3014 RMK AO2 T01180074
KRFI 210515Z AUTO 09004KT 10SM CLR 12/07 A3013 RMK AO2 T01200073
KRFI 210455Z AUTO 10004KT 10SM CLR 12/08 A3014 RMK AO2 T01170075
KRFI 210435Z AUTO 08003KT 10SM CLR 11/08 A3013 RMK AO2 T01080076
KRFI 210415Z AUTO 00000KT 10SM CLR 11/08 A3014 RMK AO2 T01130076
KRFI 210355Z AUTO 10003KT 10SM CLR 13/07 A3014 RMK AO2 T01280073
KRFI 210335Z AUTO 12004KT 10SM CLR 13/07 A3014 RMK AO2 T01320073
KRFI 210315Z AUTO 11006KT 10SM CLR 14/08 A3014 RMK AO2 T01350075
KRFI 210255Z AUTO 11006KT 10SM CLR 14/08 A3014 RMK AO2 T01370075
KRFI 210235Z AUTO 10005KT 10SM CLR 14/08 A3014 RMK AO2 T01350075
KRFI 210215Z AUTO 10004KT 10SM CLR 14/08 A3015 RMK AO2 T01400076
KRFI 210155Z AUTO 12005KT 10SM CLR 13/08 A3015 RMK AO2 T01340079
KRFI 210135Z AUTO 00000KT 10SM CLR 13/08 A3015 RMK AO2 T01300083
KRFI 210115Z AUTO 00000KT 10SM CLR 15/08 A3015 RMK AO2 T01460080
KRFI 210055Z AUTO 00000KT 10SM CLR 16/08 A3015 RMK AO2 T01550076
KRFI 210035Z AUTO 11004KT 10SM CLR 17/07 A3014 RMK AO2 T01660074
KRFI 210015Z AUTO 11006KT 7SM CLR 18/07 A3014 RMK AO2 T01760070
KRFI 202355Z AUTO 11008KT 10SM CLR 18/07 A3014 RMK AO2 T01810069 10197 20155
KRFI 202335Z AUTO 09007KT 10SM CLR 19/07 A3015 RMK AO2 T01850066
KRFI 202315Z AUTO 09007KT 10SM CLR 19/07 A3015 RMK AO2 T01870065
KRFI 202255Z AUTO 08007KT 10SM CLR 19/07 A3015 RMK AO2 LTG DSNT NW T01920067
KRFI 202235Z AUTO 09007KT 10SM CLR 19/06 A3016 RMK AO2 T01910064
KRFI 202215Z AUTO 08007KT 10SM CLR 19/06 A3016 RMK AO2 T01910059
KRFI 202155Z AUTO 09007KT 070V130 7SM CLR 19/06 A3016 RMK AO2 T01920058
KRFI 202135Z AUTO 09008KT 10SM CLR 19/06 A3016 RMK AO2 T01920059
KRFI 202115Z AUTO 08010KT 10SM CLR 19/06 A3018 RMK AO2 T01910057
KRFI 202055Z AUTO 11010KT 080V140 10SM CLR 19/06 A3019 RMK AO2 T01900056
KRFI 202035Z AUTO 09006KT 10SM CLR 19/06 A3020 RMK AO2 T01860055
KRFI 202015Z AUTO 08008KT 10SM CLR 19/05 A3021 RMK AO2 T01850054
KRFI 201955Z AUTO 11006KT 7SM CLR 18/06 A3022 RMK AO2 T01820057
KRFI 201935Z AUTO 10005KT 10SM CLR 18/05 A3024 RMK AO2 T01750048
KRFI 201915Z AUTO 10SM CLR 18/05 A3025 RMK AO2 T01760054
KRFI 201855Z AUTO 07005KT 10SM CLR 17/05 A3027 RMK AO2 T01660048
KRFI 201835Z AUTO 07005KT 10SM CLR 16/05 A3028 RMK AO2 T01640050
KRFI 201815Z AUTO 08007KT 050V110 10SM CLR 16/05 A3030 RMK AO2 T01640048
KRFI 201755Z AUTO 09003KT 10SM CLR 15/04 A3030 RMK AO2 T01540042 10157 20067
KRFI 201735Z AUTO 13009KT 10SM CLR 16/04 A3030 RMK AO2 T01550040
KRFI 201715Z AUTO 08008G14KT 050V130 10SM CLR 15/03 A3031 RMK AO2 T01480034
KRFI 201655Z AUTO 09011G16KT 060V120 10SM CLR 15/03 A3031 RMK AO2 T01450031
KRFI 201635Z AUTO 11007G15KT 10SM CLR 14/03 A3032 RMK AO2 T01370031
KRFI 201615Z AUTO 08008G15KT 10SM CLR 13/03 A3033 RMK AO2 T01340027
KRFI 201555Z AUTO 08007KT 050V110 10SM CLR 13/03 A3034 RMK AO2 T01290029
KRFI 201535Z AUTO 09007KT 10SM CLR 12/03 A3033 RMK AO2 T01200030
KRFI 201515Z AUTO 12010G14KT 10SM CLR 12/03 A3034 RMK AO2 T01150026